Time;durP1;ratioP1;P1;durP2;ratioP2;P2;SDS_P1;SDS_P2;PMS_P1;PMS_P2;Temp;Humidity;BMP_temperature;BMP_pressure;BME280_temperature;BME280_humidity;BME280_pressure;Samples;Min_cycle;Max_cycle;Signal;HPM_P1;HPM_P2
2021/05/20 00:01:25;;;;;;;6.80;2.00;;;;;;;3.72;81.77;99991.78;4939013;29;20481;-70
2021/05/20 00:03:52;;;;;;;4.55;2.08;;;;;;;3.66;82.21;99992.56;4952722;29;20033;-70
2021/05/20 00:06:17;;;;;;;6.00;2.08;;;;;;;3.60;82.60;99991.50;4951512;28;20102;-70
2021/05/20 00:08:43;;;;;;;8.23;2.45;;;;;;;3.71;82.67;99998.13;4953078;28;20023;-70
2021/05/20 00:11:08;;;;;;;6.22;2.08;;;;;;;3.81;82.46;99998.63;4941491;28;20031;-70
2021/05/20 00:13:34;;;;;;;9.05;2.50;;;;;;;3.86;82.57;100000.75;4948539;29;20027;-70
2021/05/20 00:16:00;;;;;;;6.43;2.15;;;;;;;3.90;82.72;99990.50;4946432;28;20497;-70
2021/05/20 00:18:26;;;;;;;7.55;2.15;;;;;;;3.89;82.28;99996.84;4942653;29;20074;-70
2021/05/20 00:20:51;;;;;;;4.00;1.90;;;;;;;3.90;82.29;99987.84;4939162;28;20114;-70
2021/05/20 00:23:17;;;;;;;10.95;2.22;;;;;;;3.86;82.62;99981.25;4939123;29;20099;-70
2021/05/20 00:25:42;;;;;;;6.32;1.80;;;;;;;3.64;82.45;99975.94;4939288;28;20074;-70
2021/05/20 00:28:08;;;;;;;8.10;2.42;;;;;;;3.45;83.11;99977.38;4946427;29;20040;-71
2021/05/20 00:30:33;;;;;;;10.13;2.50;;;;;;;3.32;83.42;99981.56;4939117;29;20038;-71
2021/05/20 00:32:59;;;;;;;6.07;2.38;;;;;;;3.34;83.10;99982.19;4948171;28;20071;-70
2021/05/20 00:35:24;;;;;;;7.80;2.50;;;;;;;3.34;83.79;99982.19;4952266;28;20523;-71
2021/05/20 00:37:50;;;;;;;4.70;2.17;;;;;;;3.24;84.33;99978.22;4947844;28;20090;-71
2021/05/20 00:40:17;;;;;;;7.60;2.58;;;;;;;3.17;84.58;99976.31;4948514;28;20086;-71
2021/05/20 00:42:47;;;;;;;9.68;2.83;;;;;;;3.20;84.18;99980.41;4946462;28;20047;-71
2021/05/20 00:45:13;;;;;;;5.78;2.85;;;;;;;3.17;84.20;99965.66;4952221;28;20040;-71
2021/05/20 00:47:40;;;;;;;7.97;3.00;;;;;;;3.11;84.73;99976.22;4936671;28;20035;-71
2021/05/20 00:50:08;;;;;;;8.77;3.33;;;;;;;3.21;85.38;99977.59;4947526;29;20114;-72
2021/05/20 00:52:35;;;;;;;5.13;2.90;;;;;;;3.25;84.25;99975.34;4952374;28;20453;-70
2021/05/20 00:55:06;;;;;;;8.57;3.08;;;;;;;3.21;84.40;99966.94;4939648;29;20035;-71
2021/05/20 00:57:33;;;;;;;7.70;3.13;;;;;;;3.16;85.25;99971.16;4953966;29;20059;-71
2021/05/20 01:00:08;;;;;;;7.10;3.63;;;;;;;3.24;85.40;99967.56;4944176;28;20108;-71
2021/05/20 01:02:35;;;;;;;9.38;3.90;;;;;;;3.24;84.63;99957.72;4938323;29;20085;-71
2021/05/20 01:05:02;;;;;;;9.20;3.70;;;;;;;3.15;83.83;99962.38;4948141;28;20078;-70
2021/05/20 01:07:28;;;;;;;12.40;3.28;;;;;;;3.19;84.68;99962.78;4943140;28;20031;-71
2021/05/20 01:09:54;;;;;;;9.00;3.15;;;;;;;3.18;83.56;99966.47;4929178;29;20032;-70
2021/05/20 01:12:19;;;;;;;9.25;3.33;;;;;;;3.08;84.53;99966.78;4948655;29;20098;-70
2021/05/20 01:14:45;;;;;;;8.63;3.33;;;;;;;3.07;85.31;99965.16;4951906;28;20598;-70
2021/05/20 01:17:12;;;;;;;15.63;3.58;;;;;;;3.19;85.44;99965.47;4945052;28;20072;-70
2021/05/20 01:19:47;;;;;;;10.23;2.95;;;;;;;3.22;85.50;99949.09;4950856;29;20039;-70
2021/05/20 01:22:14;;;;;;;7.72;2.95;;;;;;;3.14;84.33;99952.72;4946763;29;20047;-70
2021/05/20 01:24:40;;;;;;;5.82;2.60;;;;;;;3.13;84.65;99955.56;4940054;28;20098;-70
2021/05/20 01:27:08;;;;;;;14.23;3.20;;;;;;;3.13;85.40;99955.56;4951187;29;20403;-70
2021/05/20 01:29:34;;;;;;;12.18;2.90;;;;;;;3.15;85.38;99956.19;4951129;28;20039;-70
2021/05/20 01:32:01;;;;;;;6.32;2.72;;;;;;;3.03;84.24;99953.22;4947957;28;20035;-71
2021/05/20 01:34:27;;;;;;;6.97;2.60;;;;;;;2.99;84.71;99949.28;4937701;29;20054;-70
2021/05/20 01:36:53;;;;;;;8.88;2.92;;;;;;;2.96;85.47;99955.00;4946406;28;20587;-70
2021/05/20 01:39:18;;;;;;;8.65;3.15;;;;;;;2.86;84.89;99950.78;4931923;29;20047;-71
2021/05/20 01:41:44;;;;;;;7.07;2.55;;;;;;;2.73;85.71;99948.78;4938373;28;20054;-71
2021/05/20 01:44:10;;;;;;;12.80;3.05;;;;;;;2.87;86.74;99943.63;4937025;29;20042;-70
2021/05/20 01:46:36;;;;;;;13.77;3.03;;;;;;;2.77;85.73;99935.94;4942252;28;20059;-70
2021/05/20 01:49:09;;;;;;;8.88;2.85;;;;;;;2.75;86.24;99937.97;4947665;28;20042;-70
2021/05/20 01:51:35;;;;;;;12.05;3.38;;;;;;;2.86;87.46;99929.50;4938859;28;20031;-71
2021/05/20 01:54:01;;;;;;;8.90;2.97;;;;;;;2.83;86.56;99918.41;4935383;29;20071;-71
2021/05/20 01:56:27;;;;;;;7.13;2.95;;;;;;;2.75;86.78;99930.00;4937187;28;20035;-70
2021/05/20 01:58:53;;;;;;;17.02;4.03;;;;;;;2.73;87.13;99910.72;4945636;29;20042;-70
2021/05/20 02:01:20;;;;;;;14.93;3.85;;;;;;;2.93;87.49;99914.44;4944392;29;20126;-70
2021/05/20 02:03:46;;;;;;;13.30;4.20;;;;;;;3.07;86.96;99915.38;4936364;28;20031;-70
2021/05/20 02:06:12;;;;;;;9.43;4.07;;;;;;;3.13;86.36;99905.84;4943008;28;20036;-70
2021/05/20 02:08:39;;;;;;;9.30;3.75;;;;;;;3.07;85.33;99898.63;4940187;28;20027;-70
2021/05/20 02:11:06;;;;;;;12.93;3.38;;;;;;;2.99;86.14;99902.19;4941466;28;20047;-71
2021/05/20 02:13:33;;;;;;;11.73;3.90;;;;;;;2.90;85.80;99896.19;4945253;29;20055;-70
2021/05/20 02:15:59;;;;;;;13.13;3.83;;;;;;;2.90;85.94;99896.19;4942852;28;20556;-71
2021/05/20 02:18:25;;;;;;;11.55;4.22;;;;;;;2.81;85.79;99896.47;4939525;29;20114;-71
2021/05/20 02:20:50;;;;;;;9.07;4.43;;;;;;;2.66;86.92;99897.34;4947002;29;20063;-70
2021/05/20 02:23:17;;;;;;;16.33;5.45;;;;;;;2.55;87.09;99895.97;4951207;29;20043;-70
2021/05/20 02:25:44;;;;;;;17.35;4.80;;;;;;;2.59;87.66;99891.94;4951589;28;20114;-70
2021/05/20 02:28:09;;;;;;;16.15;5.22;;;;;;;2.55;87.48;99885.34;4952344;29;20495;-70
2021/05/20 02:30:35;;;;;;;18.80;6.13;;;;;;;2.45;87.49;99884.81;4955482;28;20044;-70
2021/05/20 02:33:00;;;;;;;13.38;5.85;;;;;;;2.38;87.76;99892.72;4947383;29;20031;-70
2021/05/20 02:35:26;;;;;;;16.13;6.90;;;;;;;2.34;88.45;99884.28;4950625;28;20070;-71
2021/05/20 02:37:52;;;;;;;16.48;7.38;;;;;;;2.30;88.33;99884.84;4952177;28;20031;-71
2021/05/20 02:40:19;;;;;;;20.45;6.93;;;;;;;2.42;88.47;99877.19;4950945;28;20039;-71
2021/05/20 02:42:45;;;;;;;11.45;6.18;;;;;;;2.44;88.20;99878.69;4947087;28;20042;-70
2021/05/20 02:45:14;;;;;;;19.58;6.78;;;;;;;2.35;88.22;99869.16;4943393;29;20122;-70
2021/05/20 02:47:41;;;;;;;17.50;7.32;;;;;;;2.39;88.27;99864.28;4948374;29;20039;-71
2021/05/20 02:50:07;;;;;;;11.75;5.70;;;;;;;2.28;88.15;99870.91;4948628;28;20071;-71
2021/05/20 02:52:33;;;;;;;15.40;6.35;;;;;;;2.27;88.66;99872.72;4952228;28;20043;-71
2021/05/20 02:55:02;;;;;;;14.73;5.60;;;;;;;2.29;88.14;99861.94;4939454;28;21056;-71
2021/05/20 02:57:28;;;;;;;15.90;6.78;;;;;;;2.37;89.16;99855.66;4947122;28;20031;-71
2021/05/20 02:59:55;;;;;;;18.40;6.15;;;;;;;2.29;88.82;99856.59;4947849;29;20041;-71
2021/05/20 03:02:21;;;;;;;13.13;6.15;;;;;;;2.30;88.39;99852.94;4944511;29;20106;-70
2021/05/20 03:04:46;;;;;;;15.10;6.05;;;;;;;2.22;88.00;99853.03;4955293;28;20047;-71
2021/05/20 03:07:12;;;;;;;15.98;5.68;;;;;;;2.16;88.74;99846.63;4935341;28;20454;-70
2021/05/20 03:09:40;;;;;;;20.00;7.90;;;;;;;2.34;89.76;99839.06;4948524;28;20414;-70
2021/05/20 03:12:06;;;;;;;16.42;6.88;;;;;;;2.23;88.54;99841.41;4941802;28;20035;-70
2021/05/20 03:14:31;;;;;;;18.92;6.80;;;;;;;2.13;88.85;99841.69;4930811;29;20504;-70
2021/05/20 03:16:57;;;;;;;17.83;6.18;;;;;;;2.17;89.22;99833.16;4935179;29;20063;-70
2021/05/20 03:19:22;;;;;;;11.23;5.72;;;;;;;2.14;89.05;99832.69;4942346;29;20054;-70
2021/05/20 03:21:49;;;;;;;16.77;5.75;;;;;;;2.13;88.96;99826.56;4952858;29;20043;-70
2021/05/20 03:24:15;;;;;;;19.95;5.88;;;;;;;2.16;89.27;99828.84;4945874;28;20075;-70
2021/05/20 03:26:40;;;;;;;18.77;6.78;;;;;;;2.26;89.48;99827.75;4934093;28;20036;-70
2021/05/20 03:29:06;;;;;;;12.88;6.03;;;;;;;2.21;89.23;99822.97;4942740;28;20019;-70
2021/05/20 03:31:32;;;;;;;21.65;5.90;;;;;;;2.21;89.53;99822.16;4940188;28;20105;-70
2021/05/20 03:33:58;;;;;;;16.23;5.88;;;;;;;2.24;90.06;99816.47;4939663;29;20114;-70
2021/05/20 03:36:24;;;;;;;16.88;6.40;;;;;;;2.26;90.12;99812.59;4934777;29;20131;-70
2021/05/20 03:38:49;;;;;;;10.98;5.20;;;;;;;2.29;90.37;99806.09;4950757;29;20106;-70
2021/05/20 03:41:15;;;;;;;18.52;6.40;;;;;;;2.37;90.36;99807.81;4946428;28;20509;-70
2021/05/20 03:43:40;;;;;;;11.90;6.20;;;;;;;2.43;89.92;99802.59;4942030;29;20615;-71
2021/05/20 03:46:06;;;;;;;13.68;6.07;;;;;;;2.44;89.90;99787.44;4951321;28;20066;-71
2021/05/20 03:48:32;;;;;;;19.25;6.55;;;;;;;2.44;90.33;99788.28;4947820;28;20162;-70
2021/05/20 03:50:58;;;;;;;12.77;6.07;;;;;;;2.48;90.55;99778.94;4953017;29;20027;-70
2021/05/20 03:53:29;;;;;;;14.05;5.43;;;;;;;2.51;90.69;99788.34;4940645;28;20452;-70
2021/05/20 03:55:56;;;;;;;19.63;6.25;;;;;;;2.69;90.70;99779.94;4938781;29;20031;-70
2021/05/20 03:58:22;;;;;;;16.35;5.57;;;;;;;2.75;90.14;99781.03;4941871;28;20036;-70
2021/05/20 04:00:47;;;;;;;19.27;6.43;;;;;;;2.90;89.24;99773.81;4943184;29;20042;-70
2021/05/20 04:03:26;;;;;;;13.88;4.90;;;;;;;2.95;88.96;99778.53;4944452;29;20043;-70
2021/05/20 04:06:00;;;;;;;14.77;5.47;;;;;;;2.94;89.46;99774.22;4950448;28;20031;-70
2021/05/20 04:08:25;;;;;;;13.18;6.00;;;;;;;3.04;89.05;99774.72;4941885;28;20032;-70
2021/05/20 04:10:52;;;;;;;15.65;6.57;;;;;;;3.16;87.91;99766.22;4933680;29;20548;-71
2021/05/20 04:13:30;;;;;;;23.92;6.28;;;;;;;3.39;88.16;99765.16;4952218;29;20035;-70
2021/05/20 04:15:57;;;;;;;13.50;5.50;;;;;;;3.40;87.41;99766.78;4951078;28;20039;-70
2021/05/20 04:18:23;;;;;;;15.65;5.35;;;;;;;3.42;87.30;99765.59;4949083;28;20035;-70
2021/05/20 04:20:49;;;;;;;16.58;5.70;;;;;;;3.46;87.65;99755.34;4944036;28;20063;-70
2021/05/20 04:23:16;;;;;;;12.93;5.72;;;;;;;3.48;87.71;99750.66;4947263;28;20043;-70
2021/05/20 04:25:42;;;;;;;17.08;7.15;;;;;;;3.55;87.07;99743.56;4951832;29;20031;-70
2021/05/20 04:28:08;;;;;;;13.90;5.95;;;;;;;3.62;87.55;99748.91;4950173;28;20032;-70
2021/05/20 04:30:34;;;;;;;20.15;6.70;;;;;;;3.69;86.97;99739.13;4949326;28;20038;-70
2021/05/20 04:32:59;;;;;;;14.43;6.45;;;;;;;3.78;86.76;99735.25;4949016;28;20589;-71
2021/05/20 04:35:26;;;;;;;15.18;7.10;;;;;;;3.85;87.25;99732.66;4939742;28;20035;-71
2021/05/20 04:37:51;;;;;;;22.13;7.60;;;;;;;4.02;86.31;99724.31;4952650;28;20058;-71
2021/05/20 04:40:17;;;;;;;16.77;7.43;;;;;;;4.14;85.96;99716.53;4943019;28;20070;-70
2021/05/20 04:42:42;;;;;;;17.75;7.40;;;;;;;4.27;85.28;99716.56;4951312;28;20027;-71
2021/05/20 04:45:08;;;;;;;20.65;8.02;;;;;;;4.38;85.47;99717.81;4949570;29;20485;-70
2021/05/20 04:47:34;;;;;;;13.52;7.35;;;;;;;4.51;85.47;99717.03;4949855;28;20485;-70
2021/05/20 04:49:59;;;;;;;24.65;9.25;;;;;;;4.69;83.85;99716.44;4942884;28;20031;-70
2021/05/20 04:52:25;;;;;;;23.20;8.73;;;;;;;4.89;83.36;99712.94;4945900;29;20039;-70
2021/05/20 04:54:50;;;;;;;25.77;11.05;;;;;;;5.05;82.19;99711.72;4938736;29;20044;-70
2021/05/20 04:57:16;;;;;;;33.10;11.05;;;;;;;5.18;81.40;99700.19;4942885;29;20089;-71
2021/05/20 04:59:41;;;;;;;32.70;9.55;;;;;;;5.30;80.79;99705.72;4948388;29;20035;-70
2021/05/20 05:02:07;;;;;;;24.58;8.27;;;;;;;5.42;81.06;99704.03;4953260;28;20490;-70
2021/05/20 05:04:32;;;;;;;23.63;6.55;;;;;;;5.53;80.51;99697.25;4948728;28;20121;-70
2021/05/20 05:06:59;;;;;;;28.88;6.45;;;;;;;5.63;79.63;99697.63;4946832;29;20039;-70
2021/05/20 05:09:25;;;;;;;14.02;4.90;;;;;;;5.69;79.59;99695.94;4944341;28;20046;-70
2021/05/20 05:11:50;;;;;;;19.55;5.03;;;;;;;5.78;79.06;99700.00;4942805;29;20031;-69
2021/05/20 05:14:17;;;;;;;18.77;5.40;;;;;;;5.88;78.82;99699.56;4953550;28;20070;-69
2021/05/20 05:16:43;;;;;;;15.02;4.70;;;;;;;5.94;78.20;99696.06;4944313;28;20169;-69
2021/05/20 05:19:09;;;;;;;16.73;5.05;;;;;;;5.99;77.75;99688.22;4946430;28;20414;-69
2021/05/20 05:21:34;;;;;;;18.30;5.03;;;;;;;6.03;77.73;99688.63;4934133;29;20043;-69
2021/05/20 05:24:00;;;;;;;14.75;5.13;;;;;;;6.02;78.22;99681.63;4947474;29;20047;-69
2021/05/20 05:26:26;;;;;;;19.40;5.05;;;;;;;6.08;78.11;99680.78;4951486;28;20043;-71
2021/05/20 05:28:51;;;;;;;19.17;4.65;;;;;;;6.09;78.57;99682.41;4941818;28;20164;-72
2021/05/20 05:31:21;;;;;;;12.43;4.53;;;;;;;6.19;78.12;99679.28;4937857;29;20110;-72
2021/05/20 05:33:47;;;;;;;15.50;4.40;;;;;;;6.24;78.60;99671.44;4941895;28;20038;-72
2021/05/20 05:36:12;;;;;;;12.13;4.13;;;;;;;6.32;78.52;99673.03;4952070;28;20035;-73
2021/05/20 05:38:38;;;;;;;11.05;3.92;;;;;;;6.36;78.41;99673.41;4943645;28;20046;-72
2021/05/20 05:41:04;;;;;;;13.63;4.10;;;;;;;6.50;77.55;99663.44;4947094;28;20138;-72
2021/05/20 05:43:30;;;;;;;11.18;3.65;;;;;;;6.43;78.16;99664.31;4941899;28;20035;-72
2021/05/20 05:45:56;;;;;;;8.60;3.63;;;;;;;6.48;77.70;99660.19;4937901;28;20032;-72
2021/05/20 05:48:22;;;;;;;10.95;4.68;;;;;;;6.36;77.69;99657.38;4945678;29;20031;-72
2021/05/20 05:50:49;;;;;;;20.38;3.97;;;;;;;6.38;78.39;99653.44;4933640;28;21109;-73
2021/05/20 05:53:15;;;;;;;12.20;3.90;;;;;;;6.37;78.39;99649.13;4942030;29;20038;-71
2021/05/20 05:55:43;;;;;;;12.45;3.38;;;;;;;6.38;78.08;99652.63;4945946;28;20035;-73
2021/05/20 05:58:08;;;;;;;10.82;4.00;;;;;;;6.43;78.41;99650.94;4948521;29;20114;-72
2021/05/20 06:00:34;;;;;;;18.00;4.25;;;;;;;6.42;78.94;99638.59;4950283;29;20031;-72
2021/05/20 06:02:59;;;;;;;11.18;4.75;;;;;;;6.37;78.81;99638.44;4938089;29;20039;-74
2021/05/20 06:05:25;;;;;;;20.55;4.72;;;;;;;6.46;78.43;99633.63;4946518;28;20039;-75
2021/05/20 06:07:51;;;;;;;12.90;5.47;;;;;;;6.47;78.73;99632.59;4953450;28;20130;-73
2021/05/20 06:10:16;;;;;;;17.92;5.57;;;;;;;6.51;78.28;99630.31;4951379;29;20042;-71
2021/05/20 06:12:42;;;;;;;16.55;6.60;;;;;;;6.52;78.26;99622.06;4944590;29;20570;-72
2021/05/20 06:15:09;;;;;;;21.50;6.25;;;;;;;6.51;78.33;99623.09;4949823;29;20516;-72
2021/05/20 06:17:38;;;;;;;18.10;6.07;;;;;;;6.55;78.17;99616.25;4948933;28;20097;-74
2021/05/20 06:20:05;;;;;;;22.10;6.15;;;;;;;6.64;78.11;99606.09;4941335;29;20058;-70
2021/05/20 06:22:31;;;;;;;25.42;7.60;;;;;;;6.62;77.76;99616.22;4941598;29;20520;-70
2021/05/20 06:24:56;;;;;;;17.98;6.25;;;;;;;6.61;77.67;99613.75;4942149;28;20090;-70
2021/05/20 06:27:26;;;;;;;17.27;6.47;;;;;;;6.58;77.77;99615.81;4942197;29;20031;-71
2021/05/20 06:29:54;;;;;;;22.02;6.15;;;;;;;6.66;77.59;99604.03;4947904;29;20090;-72
2021/05/20 06:32:20;;;;;;;16.75;5.90;;;;;;;6.76;77.20;99594.69;4943224;28;20035;-70
2021/05/20 06:34:46;;;;;;;22.52;6.10;;;;;;;6.77;77.37;99578.38;4943666;29;20039;-72
2021/05/20 06:37:12;;;;;;;9.35;4.95;;;;;;;6.83;77.15;99576.69;4946264;29;20031;-74
2021/05/20 06:39:39;;;;;;;19.98;5.03;;;;;;;6.92;76.76;99578.03;4944900;28;20489;-75
2021/05/20 06:42:05;;;;;;;10.52;4.32;;;;;;;6.95;76.44;99582.94;4948826;29;20038;-71
2021/05/20 06:44:31;;;;;;;14.18;5.05;;;;;;;7.03;76.09;99571.94;4953469;29;20044;-71
2021/05/20 06:46:57;;;;;;;17.38;6.30;;;;;;;7.04;76.36;99564.72;4945579;28;20035;-71
2021/05/20 06:49:22;;;;;;;21.42;5.93;;;;;;;7.02;76.15;99556.06;4948446;29;20027;-70
2021/05/20 06:51:48;;;;;;;16.35;5.70;;;;;;;7.07;75.38;99550.06;4948263;28;20087;-71
2021/05/20 06:54:15;;;;;;;21.30;6.43;;;;;;;6.92;76.25;99545.91;4941683;28;20488;-71
2021/05/20 06:56:42;;;;;;;25.35;6.55;;;;;;;6.98;75.51;99534.31;4941935;28;20028;-70
2021/05/20 07:01:53;;;;;;;24.52;7.65;;;;;;;7.07;75.44;99534.00;4944914;28;20035;-73
2021/05/20 07:04:18;;;;;;;24.98;8.63;;;;;;;7.12;76.07;99529.63;4939570;28;20071;-73
2021/05/20 07:06:46;;;;;;;26.60;8.38;;;;;;;7.20;75.69;99527.69;4948839;28;20043;-71
2021/05/20 07:09:12;;;;;;;26.65;8.38;;;;;;;7.22;76.29;99520.22;4938127;29;20035;-72
2021/05/20 07:11:38;;;;;;;21.95;8.30;;;;;;;7.18;76.22;99509.13;4934491;29;20442;-73
2021/05/20 07:14:03;;;;;;;32.28;8.80;;;;;;;7.29;76.28;99504.88;4944451;29;20054;-72
2021/05/20 07:16:29;;;;;;;27.10;7.55;;;;;;;7.38;76.10;99503.53;4947209;28;20082;-70
2021/05/20 07:18:54;;;;;;;24.92;7.07;;;;;;;7.45;76.17;99506.09;4944152;28;20497;-70
2021/05/20 07:21:21;;;;;;;16.85;6.82;;;;;;;7.62;75.96;99492.88;4936712;28;20065;-70
2021/05/20 07:23:46;;;;;;;16.80;6.95;;;;;;;7.68;75.95;99493.81;4942556;28;20106;-70
2021/05/20 07:26:12;;;;;;;23.55;7.80;;;;;;;7.75;75.57;99483.81;4934692;29;20058;-70
2021/05/20 07:28:37;;;;;;;24.00;8.00;;;;;;;7.84;76.23;99485.09;4946078;28;20485;-71
2021/05/20 07:31:03;;;;;;;29.65;9.38;;;;;;;7.90;75.56;99478.81;4939205;28;20039;-69
2021/05/20 07:33:30;;;;;;;22.67;8.15;;;;;;;7.98;75.65;99466.94;4944195;28;20027;-69
2021/05/20 07:35:56;;;;;;;22.20;7.30;;;;;;;8.00;75.68;99464.03;4938600;29;20059;-69
2021/05/20 07:38:21;;;;;;;15.63;6.38;;;;;;;7.95;75.48;99463.88;4952793;28;20039;-69
2021/05/20 07:40:47;;;;;;;17.25;6.50;;;;;;;8.06;75.37;99465.78;4926301;29;20478;-69
2021/05/20 07:43:12;;;;;;;13.63;5.85;;;;;;;8.09;74.93;99459.97;4947217;29;20046;-70
2021/05/20 07:45:38;;;;;;;17.27;5.18;;;;;;;8.21;74.94;99451.91;4948524;28;20042;-69
2021/05/20 07:48:04;;;;;;;15.70;5.82;;;;;;;8.13;75.12;99450.41;4936975;29;20044;-70
2021/05/20 07:50:30;;;;;;;15.90;5.95;;;;;;;8.26;74.66;99443.97;4948767;29;20046;-69
2021/05/20 07:52:55;;;;;;;11.75;5.40;;;;;;;8.13;75.25;99437.00;4951342;29;20059;-69
2021/05/20 07:55:21;;;;;;;13.98;4.88;;;;;;;8.31;74.63;99436.03;4938194;28;20032;-69
2021/05/20 07:57:47;;;;;;;16.10;5.15;;;;;;;8.46;74.13;99423.97;4939201;29;20551;-69
2021/05/20 08:00:13;;;;;;;14.75;5.60;;;;;;;8.48;74.55;99408.47;4935564;29;20043;-68
2021/05/20 08:05:20;;;;;;;19.27;5.15;;;;;;;8.95;72.64;99409.41;4933955;29;20046;-69
2021/05/20 08:12:40;;;;;;;10.07;4.82;;;;;;;8.87;72.81;99406.06;4931690;29;20035;-69
2021/05/20 08:15:07;;;;;;;18.55;4.28;;;;;;;8.78;72.84;99391.34;4935959;28;20102;-69
2021/05/20 08:17:32;;;;;;;17.63;4.60;;;;;;;8.83;72.62;99396.03;4942481;29;20379;-69
2021/05/20 08:19:58;;;;;;;16.58;4.45;;;;;;;8.92;72.31;99384.69;4943377;29;20038;-69
2021/05/20 08:22:24;;;;;;;8.02;4.18;;;;;;;8.92;72.83;99368.56;4938456;29;20063;-69
2021/05/20 08:24:49;;;;;;;8.60;4.18;;;;;;;8.84;73.47;99363.56;4933750;29;20133;-69
2021/05/20 08:27:15;;;;;;;21.35;5.22;;;;;;;8.84;73.03;99360.06;4942677;29;20035;-69
2021/05/20 08:29:42;;;;;;;12.30;4.85;;;;;;;8.87;73.48;99354.22;4942249;28;20044;-69
2021/05/20 08:32:08;;;;;;;14.10;4.50;;;;;;;9.06;73.31;99347.56;4939567;28;20035;-69
2021/05/20 08:34:34;;;;;;;13.35;3.92;;;;;;;9.26;73.01;99329.34;4937239;29;20047;-69
2021/05/20 08:37:01;;;;;;;14.23;4.38;;;;;;;9.57;71.54;99322.56;4943492;28;20437;-69
2021/05/20 08:39:28;;;;;;;13.75;3.75;;;;;;;9.51;71.78;99316.31;4940953;29;20086;-69
2021/05/20 08:41:54;;;;;;;10.52;3.67;;;;;;;9.54;71.26;99315.00;4938976;29;20496;-69
2021/05/20 08:44:25;;;;;;;15.52;3.13;;;;;;;9.42;71.95;99306.22;4946403;29;20126;-68
2021/05/20 08:46:51;;;;;;;8.57;3.25;;;;;;;9.40;72.25;99279.59;4936773;28;20553;-70
2021/05/20 08:49:16;;;;;;;11.85;3.50;;;;;;;9.48;72.78;99270.28;4945391;28;20055;-71
2021/05/20 08:51:44;;;;;;;9.93;2.97;;;;;;;9.52;72.38;99271.41;4945503;28;20093;-71
2021/05/20 08:54:10;;;;;;;9.15;3.20;;;;;;;9.65;71.77;99254.13;4944919;28;20557;-71
2021/05/20 08:56:35;;;;;;;19.42;4.10;;;;;;;9.66;72.21;99256.56;4947392;29;20170;-71
2021/05/20 08:59:01;;;;;;;13.35;3.92;;;;;;;9.74;71.79;99249.94;4943309;28;20485;-71
2021/05/20 09:01:38;;;;;;;34.05;3.83;;;;;;;9.88;71.26;99241.50;4940333;29;20390;-71
2021/05/20 09:04:06;;;;;;;17.83;3.58;;;;;;;9.81;70.76;99237.13;4951630;28;20031;-71
2021/05/20 09:06:59;;;;;;;27.17;3.50;;;;;;;9.76;71.25;99231.69;4937924;28;20038;-71
2021/05/20 09:09:32;;;;;;;11.25;3.50;;;;;;;9.84;71.17;99233.13;4936778;29;20043;-71
2021/05/20 09:11:58;;;;;;;15.82;3.47;;;;;;;9.91;70.79;99225.69;4942296;29;20143;-71
2021/05/20 09:14:32;;;;;;;18.98;3.75;;;;;;;10.13;70.63;99224.84;4945639;28;20409;-71
2021/05/20 09:17:14;;;;;;;15.03;3.30;;;;;;;10.17;70.13;99215.22;4945683;29;20093;-71
2021/05/20 09:19:41;;;;;;;21.95;3.83;;;;;;;10.23;70.75;99197.22;4943529;28;20028;-71
2021/05/20 09:22:12;;;;;;;8.95;2.40;;;;;;;10.56;69.99;99195.41;4951105;28;20035;-71
2021/05/20 09:24:51;;;;;;;12.45;3.03;;;;;;;10.43;69.43;99193.97;4943638;29;20122;-71
2021/05/20 09:27:45;;;;;;;7.80;2.45;;;;;;;10.64;68.48;99184.19;4943760;28;20035;-71
2021/05/20 09:30:11;;;;;;;10.73;2.60;;;;;;;10.71;68.13;99175.09;4944740;29;20509;-71
2021/05/20 09:32:43;;;;;;;13.95;3.05;;;;;;;10.93;68.34;99153.41;4946590;29;20066;-71
2021/05/20 09:35:10;;;;;;;9.43;2.60;;;;;;;10.89;67.28;99155.81;4941876;28;20114;-71
2021/05/20 09:37:59;;;;;;;17.63;2.97;;;;;;;10.75;68.14;99147.38;4942227;29;20031;-71
2021/05/20 09:40:30;;;;;;;7.18;2.17;;;;;;;10.98;67.77;99145.38;4944689;28;20035;-71
2021/05/20 09:42:56;;;;;;;18.05;2.78;;;;;;;10.81;67.85;99135.56;4925571;29;20035;-71
2021/05/20 09:45:25;;;;;;;12.10;2.75;;;;;;;10.59;68.38;99129.47;4937191;28;20556;-71
2021/05/20 09:47:51;;;;;;;14.30;2.80;;;;;;;10.61;68.48;99124.63;4939518;29;20047;-71
2021/05/20 09:50:21;;;;;;;14.80;2.85;;;;;;;10.38;68.88;99131.97;4937991;28;20036;-71
2021/05/20 09:52:48;;;;;;;10.38;2.42;;;;;;;10.38;69.18;99113.94;4915987;29;20115;-71
2021/05/20 09:55:27;;;;;;;8.02;2.35;;;;;;;10.48;69.07;99107.03;4933486;28;20043;-71
2021/05/20 09:57:56;;;;;;;16.20;3.60;;;;;;;10.58;68.45;99103.63;4948328;28;20035;-71
2021/05/20 10:00:25;;;;;;;14.23;2.42;;;;;;;10.54;68.67;99095.22;4933256;28;20035;-71
2021/05/20 10:03:06;;;;;;;6.65;2.30;;;;;;;10.56;68.47;99082.31;4929953;29;20051;-71
2021/05/20 10:05:33;;;;;;;7.00;2.30;;;;;;;10.80;68.21;99079.25;4933054;28;20027;-71
2021/05/20 10:08:02;;;;;;;8.95;2.33;;;;;;;10.87;67.75;99084.41;4938890;28;20065;-71
2021/05/20 10:10:28;;;;;;;12.70;2.47;;;;;;;11.04;66.97;99070.78;4937435;28;20043;-70
2021/05/20 10:12:54;;;;;;;11.82;2.80;;;;;;;11.10;67.70;99070.50;4945799;29;20646;-70
2021/05/20 10:15:22;;;;;;;7.13;2.53;;;;;;;11.00;68.06;99073.16;4929795;29;20040;-71
2021/05/20 10:17:50;;;;;;;15.40;2.20;;;;;;;10.72;69.61;99068.97;4944408;28;20111;-70
2021/05/20 10:20:21;;;;;;;11.63;2.42;;;;;;;10.67;71.55;99057.09;4948250;28;20035;-70
2021/05/20 10:22:49;;;;;;;12.00;2.22;;;;;;;10.58;71.93;99052.47;4943160;29;20379;-71
2021/05/20 10:25:17;;;;;;;15.98;2.38;;;;;;;10.48;73.48;99058.56;4948862;28;20051;-71
2021/05/20 10:27:43;;;;;;;19.63;2.65;;;;;;;10.32;73.07;99046.88;4947539;28;20038;-70
2021/05/20 10:30:11;;;;;;;10.93;2.60;;;;;;;10.19;73.75;99045.41;4948306;29;20408;-70
2021/05/20 10:32:39;;;;;;;10.45;2.17;;;;;;;10.29;72.68;99029.34;4950311;28;20070;-71
2021/05/20 10:35:11;;;;;;;12.57;2.58;;;;;;;10.29;72.76;99023.16;4935541;28;20134;-71
2021/05/20 10:37:40;;;;;;;7.40;2.47;;;;;;;10.25;71.37;99018.28;4940654;29;20027;-71
2021/05/20 10:40:12;;;;;;;9.68;2.33;;;;;;;10.28;70.91;99014.25;4944165;29;20484;-71
2021/05/20 10:42:40;;;;;;;9.43;2.20;;;;;;;10.40;70.59;99006.84;4947286;29;20040;-71
2021/05/20 10:45:22;;;;;;;11.40;2.38;;;;;;;10.42;70.71;99000.38;4945537;29;20039;-71
2021/05/20 10:48:07;;;;;;;9.75;1.88;;;;;;;10.38;70.51;99010.84;4944139;29;20474;-71
2021/05/20 10:51:00;;;;;;;14.27;2.50;;;;;;;10.22;71.19;99005.34;4938624;28;20516;-71
2021/05/20 10:53:47;;;;;;;;;;;;;;;10.15;72.50;99002.06;4947425;28;20094;-71
2021/05/20 10:56:12;;;;;;;10.52;1.90;;;;;;;10.02;73.41;98997.13;4943344;29;19923;-71
2021/05/20 10:58:38;;;;;;;8.07;1.90;;;;;;;9.93;74.09;99002.16;4939558;28;20759;-71
2021/05/20 11:01:08;;;;;;;7.18;2.00;;;;;;;9.73;75.32;99002.81;4947724;29;20040;-71
2021/05/20 11:03:46;;;;;;;10.13;2.22;;;;;;;9.50;76.65;99012.78;4932679;29;20035;-71
2021/05/20 11:06:16;;;;;;;14.07;2.75;;;;;;;9.41;78.00;99003.56;4939895;28;20386;-72
2021/05/20 11:08:44;;;;;;;14.63;2.42;;;;;;;9.26;78.21;98993.47;4952600;29;20039;-71
2021/05/20 11:11:20;;;;;;;9.02;2.22;;;;;;;9.18;78.09;98981.28;4951970;28;20397;-71
2021/05/20 11:13:46;;;;;;;10.68;2.40;;;;;;;9.07;79.09;98975.00;4940538;28;20070;-71
2021/05/20 11:16:16;;;;;;;13.65;2.67;;;;;;;9.02;80.03;98981.09;4940618;28;20068;-70
2021/05/20 11:18:43;;;;;;;11.43;3.03;;;;;;;8.84;80.07;98968.81;4943742;28;20047;-72
2021/05/20 11:21:09;;;;;;;8.27;2.88;;;;;;;8.66;82.21;98964.56;4941335;28;20044;-72
2021/05/20 11:23:39;;;;;;;17.05;2.90;;;;;;;8.56;84.21;98951.81;4948184;28;20077;-72
2021/05/20 11:26:20;;;;;;;8.05;3.00;;;;;;;8.45;83.83;98937.44;4941568;29;20039;-71
2021/05/20 11:28:48;;;;;;;15.48;3.33;;;;;;;8.43;84.89;98928.00;4947241;28;20040;-72
2021/05/20 11:31:16;;;;;;;15.18;3.92;;;;;;;8.45;84.92;98918.66;4942036;28;20110;-69
2021/05/20 11:33:57;;;;;;;9.80;2.88;;;;;;;8.44;86.38;98908.16;4940765;28;20058;-72
2021/05/20 11:36:23;;;;;;;13.45;3.60;;;;;;;8.44;86.16;98914.34;4949042;29;20047;-75
2021/05/20 11:38:56;;;;;;;12.75;3.20;;;;;;;8.37;86.27;98911.03;4946417;28;20049;-76
2021/05/20 11:41:22;;;;;;;15.97;3.87;;;;;;;8.47;86.02;98902.28;4938312;29;20044;-75
2021/05/20 11:44:00;;;;;;;14.30;3.08;;;;;;;8.57;86.38;98889.00;4944562;29;20452;-75
2021/05/20 11:46:25;;;;;;;17.50;3.65;;;;;;;8.63;86.67;98871.09;4951575;28;20110;-74